首页
METAR-TAF:

METAR-TAF

机场 :

Passo Rolle, 意大利

纬度: 46-18N, 经度: 011-47E, 海拔: 2004米

当前天气观测

该预报发布于45分钟前的08:55 UTC
风速8节,风向
温度 -2°C
湿度 86%
气压 1011 hPa
能見度: 0100
冻雾

METAR: LIVR 220855Z 17008KT 0100 FZFG VV/// M02/M04 Q1011 RMK MON INVIS VIS MIN 0100

时间: 10:40 (09:40 UTC)


TAF: 丢失

超过4000个机场的气象观测和天气预报(METAR&TAF报告)。

可查询的气象台以黄色和红色小点在地图上表示。

将鼠标移到小点上方,可查看气象台名称。

然后点击查看天气观测和预报。

如需切换地图:点击带黑十字的绿色按钮放大地图;点击带横线的绿色按钮缩小地图;或者点击绿色箭头查看邻近地区的地图。


METAR-TAF: